sensor_id;sensor_type;location;lat;lon;timestamp;P1;durP1;ratioP1;P2;durP2;ratioP2
77800;SDS011;66991;50.058;14.454;2023-03-05T00:00:18;15.38;;;5.75;;
77800;SDS011;66991;50.058;14.454;2023-03-05T00:02:44;14.82;;;6.32;;
77800;SDS011;66991;50.058;14.454;2023-03-05T00:05:09;13.68;;;6.68;;
77800;SDS011;66991;50.058;14.454;2023-03-05T00:07:35;11.35;;;6.03;;
77800;SDS011;66991;50.058;14.454;2023-03-05T00:10:00;12.60;;;6.68;;
77800;SDS011;66991;50.058;14.454;2023-03-05T00:12:27;13.45;;;6.32;;
77800;SDS011;66991;50.058;14.454;2023-03-05T00:14:52;14.18;;;6.30;;
77800;SDS011;66991;50.058;14.454;2023-03-05T00:17:18;18.10;;;8.07;;
77800;SDS011;66991;50.058;14.454;2023-03-05T00:19:43;14.45;;;7.60;;
77800;SDS011;66991;50.058;14.454;2023-03-05T00:22:08;17.20;;;7.68;;
77800;SDS011;66991;50.058;14.454;2023-03-05T00:24:34;16.60;;;7.32;;
77800;SDS011;66991;50.058;14.454;2023-03-05T00:26:59;16.00;;;7.15;;
77800;SDS011;66991;50.058;14.454;2023-03-05T00:29:25;16.40;;;7.47;;
77800;SDS011;66991;50.058;14.454;2023-03-05T00:31:51;16.83;;;7.20;;
77800;SDS011;66991;50.058;14.454;2023-03-05T00:34:17;17.58;;;7.32;;
77800;SDS011;66991;50.058;14.454;2023-03-05T00:36:44;18.27;;;8.07;;
77800;SDS011;66991;50.058;14.454;2023-03-05T00:39:11;16.95;;;7.30;;
77800;SDS011;66991;50.058;14.454;2023-03-05T00:41:37;24.70;;;10.30;;
77800;SDS011;66991;50.058;14.454;2023-03-05T00:44:02;20.17;;;8.93;;
77800;SDS011;66991;50.058;14.454;2023-03-05T00:46:28;16.25;;;8.18;;
77800;SDS011;66991;50.058;14.454;2023-03-05T00:48:54;17.00;;;7.93;;
77800;SDS011;66991;50.058;14.454;2023-03-05T00:51:19;16.50;;;8.30;;
77800;SDS011;66991;50.058;14.454;2023-03-05T00:53:45;26.55;;;10.00;;
77800;SDS011;66991;50.058;14.454;2023-03-05T00:56:10;16.50;;;8.30;;
77800;SDS011;66991;50.058;14.454;2023-03-05T00:58:36;15.40;;;6.78;;
77800;SDS011;66991;50.058;14.454;2023-03-05T01:01:01;14.25;;;7.82;;
77800;SDS011;66991;50.058;14.454;2023-03-05T01:03:27;13.98;;;7.45;;
77800;SDS011;66991;50.058;14.454;2023-03-05T01:05:53;13.45;;;7.28;;
77800;SDS011;66991;50.058;14.454;2023-03-05T01:08:19;14.95;;;7.25;;
77800;SDS011;66991;50.058;14.454;2023-03-05T01:10:44;13.23;;;7.53;;
77800;SDS011;66991;50.058;14.454;2023-03-05T01:13:10;17.40;;;7.13;;
77800;SDS011;66991;50.058;14.454;2023-03-05T01:15:35;15.10;;;7.60;;
77800;SDS011;66991;50.058;14.454;2023-03-05T01:18:00;16.30;;;7.05;;
77800;SDS011;66991;50.058;14.454;2023-03-05T01:20:26;13.60;;;7.18;;
77800;SDS011;66991;50.058;14.454;2023-03-05T01:22:51;11.98;;;6.53;;
77800;SDS011;66991;50.058;14.454;2023-03-05T01:25:17;14.35;;;7.18;;
77800;SDS011;66991;50.058;14.454;2023-03-05T01:27:44;14.32;;;6.22;;
77800;SDS011;66991;50.058;14.454;2023-03-05T01:30:10;11.73;;;6.45;;
77800;SDS011;66991;50.058;14.454;2023-03-05T01:32:37;13.07;;;6.13;;
77800;SDS011;66991;50.058;14.454;2023-03-05T01:35:03;13.15;;;5.43;;
77800;SDS011;66991;50.058;14.454;2023-03-05T01:37:29;15.35;;;6.07;;
77800;SDS011;66991;50.058;14.454;2023-03-05T01:39:55;11.57;;;5.43;;
77800;SDS011;66991;50.058;14.454;2023-03-05T01:42:20;13.43;;;5.80;;
77800;SDS011;66991;50.058;14.454;2023-03-05T01:44:58;10.90;;;5.50;;
77800;SDS011;66991;50.058;14.454;2023-03-05T01:47:29;12.90;;;5.88;;
77800;SDS011;66991;50.058;14.454;2023-03-05T01:49:54;12.13;;;5.40;;
77800;SDS011;66991;50.058;14.454;2023-03-05T01:52:20;13.50;;;6.55;;
77800;SDS011;66991;50.058;14.454;2023-03-05T01:54:54;14.10;;;5.20;;
77800;SDS011;66991;50.058;14.454;2023-03-05T01:57:34;12.45;;;5.82;;
77800;SDS011;66991;50.058;14.454;2023-03-05T02:00:45;13.80;;;4.65;;
77800;SDS011;66991;50.058;14.454;2023-03-05T02:02:55;9.98;;;4.65;;
77800;SDS011;66991;50.058;14.454;2023-03-05T02:05:23;15.35;;;6.45;;
77800;SDS011;66991;50.058;14.454;2023-03-05T02:07:54;15.27;;;6.78;;
77800;SDS011;66991;50.058;14.454;2023-03-05T02:10:25;13.85;;;7.18;;
77800;SDS011;66991;50.058;14.454;2023-03-05T02:12:53;15.18;;;6.72;;
77800;SDS011;66991;50.058;14.454;2023-03-05T02:15:20;13.18;;;7.18;;
77800;SDS011;66991;50.058;14.454;2023-03-05T02:17:46;14.15;;;6.72;;
77800;SDS011;66991;50.058;14.454;2023-03-05T02:20:15;15.98;;;7.53;;
77800;SDS011;66991;50.058;14.454;2023-03-05T02:22:43;13.30;;;5.57;;
77800;SDS011;66991;50.058;14.454;2023-03-05T02:27:38;13.88;;;6.60;;
77800;SDS011;66991;50.058;14.454;2023-03-05T02:30:05;18.95;;;8.65;;
77800;SDS011;66991;50.058;14.454;2023-03-05T02:32:30;11.43;;;5.28;;
77800;SDS011;66991;50.058;14.454;2023-03-05T02:34:56;13.85;;;6.10;;
77800;SDS011;66991;50.058;14.454;2023-03-05T02:37:21;10.57;;;5.90;;
77800;SDS011;66991;50.058;14.454;2023-03-05T02:39:47;12.63;;;6.10;;
77800;SDS011;66991;50.058;14.454;2023-03-05T02:42:12;9.02;;;4.78;;
77800;SDS011;66991;50.058;14.454;2023-03-05T02:44:37;11.13;;;5.38;;
77800;SDS011;66991;50.058;14.454;2023-03-05T02:47:03;13.73;;;6.05;;
77800;SDS011;66991;50.058;14.454;2023-03-05T02:49:28;11.40;;;5.95;;
77800;SDS011;66991;50.058;14.454;2023-03-05T02:51:53;10.13;;;4.47;;
77800;SDS011;66991;50.058;14.454;2023-03-05T02:54:19;8.95;;;4.57;;
77800;SDS011;66991;50.058;14.454;2023-03-05T02:56:44;9.90;;;5.03;;
77800;SDS011;66991;50.058;14.454;2023-03-05T02:59:10;9.38;;;4.80;;
77800;SDS011;66991;50.058;14.454;2023-03-05T03:01:35;8.55;;;4.30;;
77800;SDS011;66991;50.058;14.454;2023-03-05T03:04:00;9.27;;;3.88;;
77800;SDS011;66991;50.058;14.454;2023-03-05T03:06:26;10.77;;;5.32;;
77800;SDS011;66991;50.058;14.454;2023-03-05T03:08:51;11.82;;;5.13;;
77800;SDS011;66991;50.058;14.454;2023-03-05T03:11:16;11.18;;;4.65;;
77800;SDS011;66991;50.058;14.454;2023-03-05T03:13:42;9.20;;;4.72;;
77800;SDS011;66991;50.058;14.454;2023-03-05T03:16:10;9.35;;;4.32;;
77800;SDS011;66991;50.058;14.454;2023-03-05T03:18:37;7.78;;;4.30;;
77800;SDS011;66991;50.058;14.454;2023-03-05T03:21:03;9.35;;;4.75;;
77800;SDS011;66991;50.058;14.454;2023-03-05T03:23:28;14.32;;;4.35;;
77800;SDS011;66991;50.058;14.454;2023-03-05T03:25:54;8.60;;;4.07;;
77800;SDS011;66991;50.058;14.454;2023-03-05T03:28:19;8.85;;;4.05;;
77800;SDS011;66991;50.058;14.454;2023-03-05T03:30:45;8.02;;;4.20;;
77800;SDS011;66991;50.058;14.454;2023-03-05T03:33:10;9.48;;;4.30;;
77800;SDS011;66991;50.058;14.454;2023-03-05T03:35:36;8.10;;;3.60;;
77800;SDS011;66991;50.058;14.454;2023-03-05T03:38:01;6.57;;;3.72;;
77800;SDS011;66991;50.058;14.454;2023-03-05T03:40:27;9.25;;;3.63;;
77800;SDS011;66991;50.058;14.454;2023-03-05T03:42:52;6.40;;;3.15;;
77800;SDS011;66991;50.058;14.454;2023-03-05T03:45:18;8.65;;;3.42;;
77800;SDS011;66991;50.058;14.454;2023-03-05T03:47:46;7.60;;;3.97;;
77800;SDS011;66991;50.058;14.454;2023-03-05T03:50:16;6.28;;;3.83;;
77800;SDS011;66991;50.058;14.454;2023-03-05T03:52:42;7.93;;;3.85;;
77800;SDS011;66991;50.058;14.454;2023-03-05T03:55:08;10.52;;;3.85;;
77800;SDS011;66991;50.058;14.454;2023-03-05T03:57:33;7.03;;;3.47;;
77800;SDS011;66991;50.058;14.454;2023-03-05T04:00:00;9.90;;;3.65;;
77800;SDS011;66991;50.058;14.454;2023-03-05T04:02:25;8.27;;;4.03;;
77800;SDS011;66991;50.058;14.454;2023-03-05T04:04:51;5.88;;;3.05;;
77800;SDS011;66991;50.058;14.454;2023-03-05T04:07:17;8.65;;;4.05;;
77800;SDS011;66991;50.058;14.454;2023-03-05T04:09:43;9.02;;;4.00;;
77800;SDS011;66991;50.058;14.454;2023-03-05T04:12:08;9.45;;;4.13;;
77800;SDS011;66991;50.058;14.454;2023-03-05T04:14:34;11.18;;;4.70;;
77800;SDS011;66991;50.058;14.454;2023-03-05T04:16:59;11.55;;;5.10;;
77800;SDS011;66991;50.058;14.454;2023-03-05T04:19:25;11.13;;;5.63;;
77800;SDS011;66991;50.058;14.454;2023-03-05T04:21:50;12.20;;;5.03;;
77800;SDS011;66991;50.058;14.454;2023-03-05T04:24:15;11.77;;;5.28;;
77800;SDS011;66991;50.058;14.454;2023-03-05T04:26:41;9.05;;;4.43;;
77800;SDS011;66991;50.058;14.454;2023-03-05T04:29:06;15.23;;;5.38;;
77800;SDS011;66991;50.058;14.454;2023-03-05T04:31:31;11.57;;;5.03;;
77800;SDS011;66991;50.058;14.454;2023-03-05T04:33:57;11.45;;;4.53;;
77800;SDS011;66991;50.058;14.454;2023-03-05T04:36:23;6.18;;;3.13;;
77800;SDS011;66991;50.058;14.454;2023-03-05T04:38:48;6.78;;;3.28;;
77800;SDS011;66991;50.058;14.454;2023-03-05T04:41:14;6.00;;;3.25;;
77800;SDS011;66991;50.058;14.454;2023-03-05T04:43:39;9.93;;;3.58;;
77800;SDS011;66991;50.058;14.454;2023-03-05T04:46:04;7.63;;;2.95;;
77800;SDS011;66991;50.058;14.454;2023-03-05T04:48:30;9.65;;;3.60;;
77800;SDS011;66991;50.058;14.454;2023-03-05T04:50:55;11.38;;;6.00;;
77800;SDS011;66991;50.058;14.454;2023-03-05T04:53:22;8.40;;;4.13;;
77800;SDS011;66991;50.058;14.454;2023-03-05T04:55:51;5.68;;;2.65;;
77800;SDS011;66991;50.058;14.454;2023-03-05T04:58:17;11.07;;;3.75;;
77800;SDS011;66991;50.058;14.454;2023-03-05T05:00:42;8.50;;;3.20;;
77800;SDS011;66991;50.058;14.454;2023-03-05T05:03:07;7.45;;;3.65;;
77800;SDS011;66991;50.058;14.454;2023-03-05T05:05:33;8.48;;;3.60;;
77800;SDS011;66991;50.058;14.454;2023-03-05T05:07:58;8.18;;;4.03;;
77800;SDS011;66991;50.058;14.454;2023-03-05T05:10:24;6.82;;;3.10;;
77800;SDS011;66991;50.058;14.454;2023-03-05T05:12:50;8.55;;;3.40;;
77800;SDS011;66991;50.058;14.454;2023-03-05T05:15:15;9.95;;;3.85;;
77800;SDS011;66991;50.058;14.454;2023-03-05T05:17:41;7.70;;;3.30;;
77800;SDS011;66991;50.058;14.454;2023-03-05T05:20:06;6.63;;;3.13;;
77800;SDS011;66991;50.058;14.454;2023-03-05T05:22:34;9.05;;;3.80;;
77800;SDS011;66991;50.058;14.454;2023-03-05T05:25:00;7.55;;;3.42;;
77800;SDS011;66991;50.058;14.454;2023-03-05T05:27:26;6.03;;;3.10;;
77800;SDS011;66991;50.058;14.454;2023-03-05T05:29:51;8.82;;;3.85;;
77800;SDS011;66991;50.058;14.454;2023-03-05T05:32:20;7.03;;;3.90;;
77800;SDS011;66991;50.058;14.454;2023-03-05T05:34:47;7.60;;;3.22;;
77800;SDS011;66991;50.058;14.454;2023-03-05T05:37:13;8.55;;;3.67;;
77800;SDS011;66991;50.058;14.454;2023-03-05T05:39:39;5.95;;;3.20;;
77800;SDS011;66991;50.058;14.454;2023-03-05T05:42:04;7.00;;;3.67;;
77800;SDS011;66991;50.058;14.454;2023-03-05T05:44:30;8.32;;;3.47;;
77800;SDS011;66991;50.058;14.454;2023-03-05T05:46:55;8.98;;;3.67;;
77800;SDS011;66991;50.058;14.454;2023-03-05T05:49:20;9.85;;;3.83;;
77800;SDS011;66991;50.058;14.454;2023-03-05T05:51:46;7.13;;;4.00;;
77800;SDS011;66991;50.058;14.454;2023-03-05T05:54:11;8.27;;;3.72;;
77800;SDS011;66991;50.058;14.454;2023-03-05T05:56:38;10.40;;;4.30;;
77800;SDS011;66991;50.058;14.454;2023-03-05T05:59:03;11.25;;;4.13;;
77800;SDS011;66991;50.058;14.454;2023-03-05T06:01:29;7.57;;;3.67;;
77800;SDS011;66991;50.058;14.454;2023-03-05T06:03:56;7.10;;;3.90;;
77800;SDS011;66991;50.058;14.454;2023-03-05T06:06:23;5.60;;;3.28;;
77800;SDS011;66991;50.058;14.454;2023-03-05T06:08:49;5.93;;;3.33;;
77800;SDS011;66991;50.058;14.454;2023-03-05T06:11:15;7.35;;;3.60;;
77800;SDS011;66991;50.058;14.454;2023-03-05T06:13:41;5.13;;;3.10;;
77800;SDS011;66991;50.058;14.454;2023-03-05T06:16:08;8.07;;;3.00;;
77800;SDS011;66991;50.058;14.454;2023-03-05T06:18:36;7.57;;;3.65;;
77800;SDS011;66991;50.058;14.454;2023-03-05T06:21:02;6.32;;;3.70;;
77800;SDS011;66991;50.058;14.454;2023-03-05T06:23:30;8.40;;;2.55;;
77800;SDS011;66991;50.058;14.454;2023-03-05T06:26:00;5.88;;;2.70;;
77800;SDS011;66991;50.058;14.454;2023-03-05T06:28:27;7.18;;;3.17;;
77800;SDS011;66991;50.058;14.454;2023-03-05T06:31:02;7.70;;;3.40;;
77800;SDS011;66991;50.058;14.454;2023-03-05T06:33:32;5.47;;;2.83;;
77800;SDS011;66991;50.058;14.454;2023-03-05T06:35:58;5.40;;;2.50;;
77800;SDS011;66991;50.058;14.454;2023-03-05T06:38:23;5.45;;;2.20;;
77800;SDS011;66991;50.058;14.454;2023-03-05T06:40:49;4.18;;;2.10;;
77800;SDS011;66991;50.058;14.454;2023-03-05T06:43:14;5.53;;;2.30;;
77800;SDS011;66991;50.058;14.454;2023-03-05T06:45:40;4.78;;;2.58;;
77800;SDS011;66991;50.058;14.454;2023-03-05T06:48:05;6.85;;;2.40;;
77800;SDS011;66991;50.058;14.454;2023-03-05T06:50:33;5.28;;;2.30;;
77800;SDS011;66991;50.058;14.454;2023-03-05T06:52:59;4.22;;;1.95;;
77800;SDS011;66991;50.058;14.454;2023-03-05T06:55:24;4.63;;;1.75;;
77800;SDS011;66991;50.058;14.454;2023-03-05T06:57:50;5.97;;;2.03;;
77800;SDS011;66991;50.058;14.454;2023-03-05T07:00:15;5.28;;;1.75;;
77800;SDS011;66991;50.058;14.454;2023-03-05T07:02:41;6.85;;;1.92;;
77800;SDS011;66991;50.058;14.454;2023-03-05T07:05:06;4.38;;;1.80;;
77800;SDS011;66991;50.058;14.454;2023-03-05T07:07:32;3.38;;;1.30;;
77800;SDS011;66991;50.058;14.454;2023-03-05T07:09:57;2.45;;;1.15;;
77800;SDS011;66991;50.058;14.454;2023-03-05T07:12:23;3.38;;;1.33;;
77800;SDS011;66991;50.058;14.454;2023-03-05T07:14:48;5.65;;;2.05;;
77800;SDS011;66991;50.058;14.454;2023-03-05T07:17:14;2.15;;;1.00;;
77800;SDS011;66991;50.058;14.454;2023-03-05T07:19:41;6.47;;;1.63;;
77800;SDS011;66991;50.058;14.454;2023-03-05T07:22:06;3.97;;;1.20;;
77800;SDS011;66991;50.058;14.454;2023-03-05T07:24:32;3.42;;;1.90;;
77800;SDS011;66991;50.058;14.454;2023-03-05T07:26:57;3.65;;;2.55;;
77800;SDS011;66991;50.058;14.454;2023-03-05T07:29:23;3.58;;;1.50;;
77800;SDS011;66991;50.058;14.454;2023-03-05T07:31:50;2.67;;;1.40;;
77800;SDS011;66991;50.058;14.454;2023-03-05T07:34:15;6.75;;;2.53;;
77800;SDS011;66991;50.058;14.454;2023-03-05T07:36:41;6.55;;;2.47;;
77800;SDS011;66991;50.058;14.454;2023-03-05T07:39:07;7.60;;;3.55;;
77800;SDS011;66991;50.058;14.454;2023-03-05T07:41:32;8.60;;;3.30;;
77800;SDS011;66991;50.058;14.454;2023-03-05T07:43:58;3.95;;;1.70;;
77800;SDS011;66991;50.058;14.454;2023-03-05T07:46:25;10.23;;;4.05;;
77800;SDS011;66991;50.058;14.454;2023-03-05T07:48:52;5.53;;;2.38;;
77800;SDS011;66991;50.058;14.454;2023-03-05T07:51:18;3.83;;;1.55;;
77800;SDS011;66991;50.058;14.454;2023-03-05T07:53:45;2.38;;;1.00;;
77800;SDS011;66991;50.058;14.454;2023-03-05T07:56:12;2.35;;;1.10;;
77800;SDS011;66991;50.058;14.454;2023-03-05T07:58:38;1.98;;;0.70;;
77800;SDS011;66991;50.058;14.454;2023-03-05T08:01:09;1.77;;;0.90;;
77800;SDS011;66991;50.058;14.454;2023-03-05T08:03:36;4.82;;;0.90;;
77800;SDS011;66991;50.058;14.454;2023-03-05T08:06:04;5.82;;;2.38;;
77800;SDS011;66991;50.058;14.454;2023-03-05T08:08:30;5.00;;;2.15;;
77800;SDS011;66991;50.058;14.454;2023-03-05T08:10:55;2.80;;;1.50;;
77800;SDS011;66991;50.058;14.454;2023-03-05T08:13:21;4.15;;;1.50;;
77800;SDS011;66991;50.058;14.454;2023-03-05T08:15:46;5.07;;;1.85;;
77800;SDS011;66991;50.058;14.454;2023-03-05T08:18:11;2.72;;;1.20;;
77800;SDS011;66991;50.058;14.454;2023-03-05T08:20:37;3.30;;;1.27;;
77800;SDS011;66991;50.058;14.454;2023-03-05T08:23:03;5.13;;;1.23;;
77800;SDS011;66991;50.058;14.454;2023-03-05T08:25:28;2.78;;;1.23;;
77800;SDS011;66991;50.058;14.454;2023-03-05T08:27:54;2.05;;;1.00;;
77800;SDS011;66991;50.058;14.454;2023-03-05T08:30:19;3.20;;;1.33;;
77800;SDS011;66991;50.058;14.454;2023-03-05T08:32:47;2.22;;;0.65;;
77800;SDS011;66991;50.058;14.454;2023-03-05T08:35:13;1.25;;;0.60;;
77800;SDS011;66991;50.058;14.454;2023-03-05T08:37:38;1.67;;;1.00;;
77800;SDS011;66991;50.058;14.454;2023-03-05T08:40:04;1.85;;;0.82;;
77800;SDS011;66991;50.058;14.454;2023-03-05T08:42:30;0.55;;;0.32;;
77800;SDS011;66991;50.058;14.454;2023-03-05T08:44:55;1.30;;;0.50;;
77800;SDS011;66991;50.058;14.454;2023-03-05T08:47:20;1.10;;;0.50;;
77800;SDS011;66991;50.058;14.454;2023-03-05T08:49:49;0.68;;;0.43;;
77800;SDS011;66991;50.058;14.454;2023-03-05T08:52:16;0.65;;;0.40;;
77800;SDS011;66991;50.058;14.454;2023-03-05T08:54:42;4.88;;;0.70;;
77800;SDS011;66991;50.058;14.454;2023-03-05T08:57:07;1.40;;;0.50;;
77800;SDS011;66991;50.058;14.454;2023-03-05T08:59:32;1.10;;;0.60;;
77800;SDS011;66991;50.058;14.454;2023-03-05T09:02:01;1.70;;;0.80;;
77800;SDS011;66991;50.058;14.454;2023-03-05T09:04:26;2.10;;;0.50;;
77800;SDS011;66991;50.058;14.454;2023-03-05T09:06:52;1.63;;;0.65;;
77800;SDS011;66991;50.058;14.454;2023-03-05T09:09:17;1.80;;;0.90;;
77800;SDS011;66991;50.058;14.454;2023-03-05T09:11:45;0.98;;;0.40;;
77800;SDS011;66991;50.058;14.454;2023-03-05T09:14:10;1.75;;;0.77;;
77800;SDS011;66991;50.058;14.454;2023-03-05T09:16:35;0.50;;;0.30;;
77800;SDS011;66991;50.058;14.454;2023-03-05T09:19:04;1.80;;;0.80;;
77800;SDS011;66991;50.058;14.454;2023-03-05T09:21:29;2.00;;;0.70;;
77800;SDS011;66991;50.058;14.454;2023-03-05T09:23:55;2.90;;;0.70;;
77800;SDS011;66991;50.058;14.454;2023-03-05T09:26:23;0.90;;;0.40;;
77800;SDS011;66991;50.058;14.454;2023-03-05T09:28:49;1.23;;;0.55;;
77800;SDS011;66991;50.058;14.454;2023-03-05T09:31:14;1.92;;;0.60;;
77800;SDS011;66991;50.058;14.454;2023-03-05T09:33:40;1.55;;;0.70;;
77800;SDS011;66991;50.058;14.454;2023-03-05T09:36:14;1.73;;;0.80;;
77800;SDS011;66991;50.058;14.454;2023-03-05T09:38:41;1.98;;;0.70;;
77800;SDS011;66991;50.058;14.454;2023-03-05T09:52:23;3.50;;;0.90;;
77800;SDS011;66991;50.058;14.454;2023-03-05T09:54:53;5.20;;;0.98;;
77800;SDS011;66991;50.058;14.454;2023-03-05T09:57:21;7.85;;;3.15;;
77800;SDS011;66991;50.058;14.454;2023-03-05T09:59:49;7.57;;;3.33;;
77800;SDS011;66991;50.058;14.454;2023-03-05T10:02:22;2.75;;;1.30;;
77800;SDS011;66991;50.058;14.454;2023-03-05T10:04:56;4.82;;;0.98;;
77800;SDS011;66991;50.058;14.454;2023-03-05T10:07:31;3.70;;;1.55;;
77800;SDS011;66991;50.058;14.454;2023-03-05T10:10:09;2.95;;;1.30;;
77800;SDS011;66991;50.058;14.454;2023-03-05T10:15:13;3.15;;;1.70;;
77800;SDS011;66991;50.058;14.454;2023-03-05T10:23:37;2.42;;;1.17;;
77800;SDS011;66991;50.058;14.454;2023-03-05T10:37:11;1.67;;;0.90;;
77800;SDS011;66991;50.058;14.454;2023-03-05T10:42:44;3.10;;;1.10;;
77800;SDS011;66991;50.058;14.454;2023-03-05T10:45:33;3.10;;;0.98;;
77800;SDS011;66991;50.058;14.454;2023-03-05T10:48:20;1.92;;;1.00;;
77800;SDS011;66991;50.058;14.454;2023-03-05T10:50:49;3.58;;;1.20;;
77800;SDS011;66991;50.058;14.454;2023-03-05T10:53:36;4.03;;;1.15;;
77800;SDS011;66991;50.058;14.454;2023-03-05T10:56:08;3.13;;;1.20;;
77800;SDS011;66991;50.058;14.454;2023-03-05T10:58:35;2.95;;;1.33;;
77800;SDS011;66991;50.058;14.454;2023-03-05T11:01:05;6.20;;;1.73;;
77800;SDS011;66991;50.058;14.454;2023-03-05T11:06:50;3.22;;;1.67;;
77800;SDS011;66991;50.058;14.454;2023-03-05T11:14:44;5.13;;;2.20;;
77800;SDS011;66991;50.058;14.454;2023-03-05T11:17:28;6.35;;;2.42;;
77800;SDS011;66991;50.058;14.454;2023-03-05T11:20:19;6.50;;;1.73;;
77800;SDS011;66991;50.058;14.454;2023-03-05T11:25:49;6.75;;;2.72;;
77800;SDS011;66991;50.058;14.454;2023-03-05T11:28:19;5.03;;;1.88;;
77800;SDS011;66991;50.058;14.454;2023-03-05T11:33:39;12.02;;;4.97;;
77800;SDS011;66991;50.058;14.454;2023-03-05T11:38:56;9.77;;;3.40;;
77800;SDS011;66991;50.058;14.454;2023-03-05T11:41:25;9.98;;;2.97;;
77800;SDS011;66991;50.058;14.454;2023-03-05T11:43:54;4.78;;;2.10;;
77800;SDS011;66991;50.058;14.454;2023-03-05T11:46:20;5.45;;;2.20;;
77800;SDS011;66991;50.058;14.454;2023-03-05T11:48:46;5.25;;;2.30;;
77800;SDS011;66991;50.058;14.454;2023-03-05T11:51:47;6.07;;;2.83;;
77800;SDS011;66991;50.058;14.454;2023-03-05T11:54:20;5.15;;;2.00;;
77800;SDS011;66991;50.058;14.454;2023-03-05T11:56:49;3.70;;;1.42;;
77800;SDS011;66991;50.058;14.454;2023-03-05T11:59:17;5.65;;;2.38;;
77800;SDS011;66991;50.058;14.454;2023-03-05T12:01:45;3.40;;;1.60;;
77800;SDS011;66991;50.058;14.454;2023-03-05T12:06:45;12.82;;;1.25;;
77800;SDS011;66991;50.058;14.454;2023-03-05T12:11:37;6.00;;;2.13;;
77800;SDS011;66991;50.058;14.454;2023-03-05T12:14:13;7.03;;;1.70;;
77800;SDS011;66991;50.058;14.454;2023-03-05T12:16:52;2.70;;;1.35;;
77800;SDS011;66991;50.058;14.454;2023-03-05T12:19:44;2.20;;;1.08;;
77800;SDS011;66991;50.058;14.454;2023-03-05T12:22:40;1.98;;;0.82;;
77800;SDS011;66991;50.058;14.454;2023-03-05T12:27:52;2.90;;;1.02;;
77800;SDS011;66991;50.058;14.454;2023-03-05T12:31:00;2.88;;;1.00;;
77800;SDS011;66991;50.058;14.454;2023-03-05T12:33:51;2.65;;;0.80;;
77800;SDS011;66991;50.058;14.454;2023-03-05T12:41:30;3.55;;;1.50;;
77800;SDS011;66991;50.058;14.454;2023-03-05T12:46:29;7.00;;;2.28;;
77800;SDS011;66991;50.058;14.454;2023-03-05T12:48:56;3.67;;;1.85;;
77800;SDS011;66991;50.058;14.454;2023-03-05T12:51:40;2.63;;;1.33;;
77800;SDS011;66991;50.058;14.454;2023-03-05T12:54:49;4.78;;;2.00;;
77800;SDS011;66991;50.058;14.454;2023-03-05T12:57:03;5.45;;;2.13;;
77800;SDS011;66991;50.058;14.454;2023-03-05T12:59:41;3.45;;;1.10;;
77800;SDS011;66991;50.058;14.454;2023-03-05T13:02:18;2.03;;;1.00;;
77800;SDS011;66991;50.058;14.454;2023-03-05T13:04:46;3.47;;;1.45;;
77800;SDS011;66991;50.058;14.454;2023-03-05T13:07:13;7.05;;;3.75;;
77800;SDS011;66991;50.058;14.454;2023-03-05T13:09:39;3.53;;;1.85;;
77800;SDS011;66991;50.058;14.454;2023-03-05T13:12:09;4.75;;;2.08;;
77800;SDS011;66991;50.058;14.454;2023-03-05T13:14:40;5.70;;;1.77;;
77800;SDS011;66991;50.058;14.454;2023-03-05T13:17:22;6.30;;;2.50;;
77800;SDS011;66991;50.058;14.454;2023-03-05T13:19:48;4.57;;;1.95;;
77800;SDS011;66991;50.058;14.454;2023-03-05T13:22:13;3.67;;;1.80;;
77800;SDS011;66991;50.058;14.454;2023-03-05T13:24:39;4.65;;;1.50;;
77800;SDS011;66991;50.058;14.454;2023-03-05T13:27:18;2.42;;;0.93;;
77800;SDS011;66991;50.058;14.454;2023-03-05T13:29:53;3.47;;;1.30;;
77800;SDS011;66991;50.058;14.454;2023-03-05T13:32:26;2.97;;;0.95;;
77800;SDS011;66991;50.058;14.454;2023-03-05T13:34:54;2.58;;;1.20;;
77800;SDS011;66991;50.058;14.454;2023-03-05T13:37:23;3.05;;;1.00;;
77800;SDS011;66991;50.058;14.454;2023-03-05T13:39:51;3.20;;;1.13;;
77800;SDS011;66991;50.058;14.454;2023-03-05T13:48:00;4.45;;;1.40;;
77800;SDS011;66991;50.058;14.454;2023-03-05T13:50:37;5.97;;;2.75;;
77800;SDS011;66991;50.058;14.454;2023-03-05T13:53:18;7.50;;;3.05;;
77800;SDS011;66991;50.058;14.454;2023-03-05T13:55:45;5.68;;;2.10;;
77800;SDS011;66991;50.058;14.454;2023-03-05T14:04:27;2.47;;;0.90;;
77800;SDS011;66991;50.058;14.454;2023-03-05T14:06:54;3.22;;;0.98;;
77800;SDS011;66991;50.058;14.454;2023-03-05T14:09:23;1.92;;;0.80;;
77800;SDS011;66991;50.058;14.454;2023-03-05T14:12:01;2.60;;;0.80;;
77800;SDS011;66991;50.058;14.454;2023-03-05T14:14:28;2.22;;;0.90;;
77800;SDS011;66991;50.058;14.454;2023-03-05T14:16:56;1.70;;;0.90;;
77800;SDS011;66991;50.058;14.454;2023-03-05T14:19:47;3.00;;;0.82;;
77800;SDS011;66991;50.058;14.454;2023-03-05T14:22:33;1.85;;;0.90;;
77800;SDS011;66991;50.058;14.454;2023-03-05T14:25:00;2.05;;;0.80;;
77800;SDS011;66991;50.058;14.454;2023-03-05T14:27:25;3.53;;;1.20;;
77800;SDS011;66991;50.058;14.454;2023-03-05T14:29:52;2.40;;;0.88;;
77800;SDS011;66991;50.058;14.454;2023-03-05T14:32:27;1.88;;;0.77;;
77800;SDS011;66991;50.058;14.454;2023-03-05T14:34:55;2.25;;;0.90;;
77800;SDS011;66991;50.058;14.454;2023-03-05T14:37:23;5.03;;;1.00;;
77800;SDS011;66991;50.058;14.454;2023-03-05T14:45:22;2.97;;;1.30;;
77800;SDS011;66991;50.058;14.454;2023-03-05T14:47:53;2.42;;;0.90;;
77800;SDS011;66991;50.058;14.454;2023-03-05T14:50:21;2.60;;;1.10;;
77800;SDS011;66991;50.058;14.454;2023-03-05T14:52:48;2.10;;;1.05;;
77800;SDS011;66991;50.058;14.454;2023-03-05T14:55:16;2.75;;;1.38;;
77800;SDS011;66991;50.058;14.454;2023-03-05T14:57:43;2.88;;;1.33;;
77800;SDS011;66991;50.058;14.454;2023-03-05T15:00:14;2.83;;;1.20;;
77800;SDS011;66991;50.058;14.454;2023-03-05T15:02:40;2.25;;;1.10;;
77800;SDS011;66991;50.058;14.454;2023-03-05T15:05:06;2.65;;;1.02;;
77800;SDS011;66991;50.058;14.454;2023-03-05T15:07:31;2.17;;;1.00;;
77800;SDS011;66991;50.058;14.454;2023-03-05T15:09:57;3.22;;;1.23;;
77800;SDS011;66991;50.058;14.454;2023-03-05T15:12:24;4.97;;;1.25;;
77800;SDS011;66991;50.058;14.454;2023-03-05T15:14:50;3.05;;;1.15;;
77800;SDS011;66991;50.058;14.454;2023-03-05T15:17:30;4.32;;;2.10;;
77800;SDS011;66991;50.058;14.454;2023-03-05T15:19:58;4.00;;;2.30;;
77800;SDS011;66991;50.058;14.454;2023-03-05T15:22:24;6.05;;;2.30;;
77800;SDS011;66991;50.058;14.454;2023-03-05T15:24:50;6.05;;;2.85;;
77800;SDS011;66991;50.058;14.454;2023-03-05T15:27:15;5.40;;;2.92;;
77800;SDS011;66991;50.058;14.454;2023-03-05T15:29:40;3.75;;;1.70;;
77800;SDS011;66991;50.058;14.454;2023-03-05T15:32:06;2.78;;;1.50;;
77800;SDS011;66991;50.058;14.454;2023-03-05T15:34:31;4.57;;;1.42;;
77800;SDS011;66991;50.058;14.454;2023-03-05T15:36:57;2.72;;;1.35;;
77800;SDS011;66991;50.058;14.454;2023-03-05T15:39:23;1.83;;;1.10;;
77800;SDS011;66991;50.058;14.454;2023-03-05T15:41:49;3.28;;;1.35;;
77800;SDS011;66991;50.058;14.454;2023-03-05T15:44:15;2.88;;;1.17;;
77800;SDS011;66991;50.058;14.454;2023-03-05T15:46:40;2.88;;;1.05;;
77800;SDS011;66991;50.058;14.454;2023-03-05T15:49:05;2.38;;;1.05;;
77800;SDS011;66991;50.058;14.454;2023-03-05T15:51:31;2.72;;;1.20;;
77800;SDS011;66991;50.058;14.454;2023-03-05T15:53:56;2.42;;;1.17;;
77800;SDS011;66991;50.058;14.454;2023-03-05T15:56:21;1.92;;;1.10;;
77800;SDS011;66991;50.058;14.454;2023-03-05T15:58:47;2.53;;;1.10;;
77800;SDS011;66991;50.058;14.454;2023-03-05T16:01:14;2.72;;;1.10;;